createdAt,value
2018-03-25T00:02:21.254Z,22.85
2018-03-25T00:04:49.505Z,21.52
2018-03-25T00:07:17.762Z,21.83
2018-03-25T00:09:46.777Z,21.30
2018-03-25T00:12:15.037Z,21.83
2018-03-25T00:14:43.289Z,21.75
2018-03-25T00:17:11.544Z,23.35
2018-03-25T00:19:39.790Z,20.58
2018-03-25T00:22:08.053Z,22.27
2018-03-25T00:24:36.305Z,20.75
2018-03-25T00:27:04.557Z,23.33
2018-03-25T00:29:32.808Z,23.60
2018-03-25T00:32:01.065Z,21.60
2018-03-25T00:34:29.314Z,23.00
2018-03-25T00:36:58.338Z,21.50
2018-03-25T00:39:26.581Z,22.50
2018-03-25T00:41:55.610Z,21.52
2018-03-25T00:44:23.860Z,21.73
2018-03-25T00:46:52.875Z,22.40
2018-03-25T00:49:21.124Z,19.75
2018-03-25T00:51:50.147Z,21.27
2018-03-25T00:54:18.390Z,21.27
2018-03-25T00:56:47.407Z,21.37
2018-03-25T00:59:15.658Z,20.35
2018-03-25T01:01:43.902Z,22.17
2018-03-25T01:04:12.167Z,19.85
2018-03-25T01:06:40.416Z,23.40
2018-03-25T01:09:08.661Z,24.52
2018-03-25T01:11:37.674Z,23.50
2018-03-25T01:14:05.937Z,24.37
2018-03-25T01:16:34.950Z,21.87
2018-03-25T01:19:03.208Z,21.80
2018-03-25T01:21:32.226Z,22.02
2018-03-25T01:24:00.469Z,21.33
2018-03-25T01:26:29.481Z,21.70
2018-03-25T01:28:57.739Z,23.15
2018-03-25T01:31:26.761Z,22.90
2018-03-25T01:33:55.002Z,23.58
2018-03-25T01:36:24.013Z,24.55
2018-03-25T01:38:52.268Z,23.45
2018-03-25T01:41:21.289Z,24.00
2018-03-25T01:43:49.538Z,22.55
2018-03-25T01:46:18.562Z,23.60
2018-03-25T01:48:46.818Z,23.60
2018-03-25T01:51:15.835Z,24.12
2018-03-25T01:53:44.072Z,23.20
2018-03-25T01:56:13.093Z,24.37
2018-03-25T01:58:41.341Z,24.73
2018-03-25T02:01:10.357Z,23.62
2018-03-25T02:03:38.607Z,24.52
2018-03-25T02:06:06.873Z,23.65
2018-03-25T02:08:35.131Z,24.70
2018-03-25T02:11:03.382Z,25.40
2018-03-25T02:13:31.643Z,25.30
2018-03-25T02:15:59.911Z,25.85
2018-03-25T02:18:28.937Z,23.98
2018-03-25T02:20:57.194Z,27.75
2018-03-25T02:23:25.456Z,26.20
2018-03-25T02:25:54.487Z,26.75
2018-03-25T02:28:22.739Z,26.05
2018-03-25T02:30:51.011Z,27.20
2018-03-25T02:33:19.254Z,24.40
2018-03-25T02:35:47.514Z,26.35
2018-03-25T02:38:15.766Z,25.37
2018-03-25T02:40:44.026Z,23.70
2018-03-25T02:43:12.267Z,26.87
2018-03-25T02:45:41.303Z,26.75
2018-03-25T02:48:09.555Z,25.70
2018-03-25T02:50:37.814Z,24.85
2018-03-25T02:53:06.830Z,25.10
2018-03-25T02:55:35.089Z,24.85
2018-03-25T02:58:03.357Z,24.48
2018-03-25T03:00:32.375Z,25.08
2018-03-25T03:03:00.641Z,23.50
2018-03-25T03:05:28.892Z,24.80
2018-03-25T03:07:57.930Z,25.73
2018-03-25T03:10:26.183Z,23.05
2018-03-25T03:12:54.453Z,24.65
2018-03-25T03:15:22.722Z,24.00
2018-03-25T03:17:51.755Z,23.27
2018-03-25T03:20:20.008Z,23.20
2018-03-25T03:22:48.273Z,24.67
2018-03-25T03:25:17.285Z,24.23
2018-03-25T03:27:45.601Z,24.67
2018-03-25T03:30:13.810Z,23.10
2018-03-25T03:32:42.836Z,24.17
2018-03-25T03:35:11.089Z,24.50
2018-03-25T03:37:40.130Z,21.87
2018-03-25T03:40:08.389Z,25.35
2018-03-25T03:42:36.646Z,23.95
2018-03-25T03:45:04.901Z,26.37
2018-03-25T03:47:33.931Z,22.77
2018-03-25T03:50:02.184Z,23.38
2018-03-25T03:52:30.462Z,26.23
2018-03-25T03:54:58.712Z,25.20
2018-03-25T03:57:27.737Z,24.98
2018-03-25T03:59:55.993Z,25.33
2018-03-25T04:02:25.017Z,25.70
2018-03-25T04:04:53.269Z,26.58
2018-03-25T04:07:21.729Z,25.60
2018-03-25T04:09:50.751Z,25.60
2018-03-25T04:12:19.013Z,25.45
2018-03-25T04:14:47.273Z,25.73
2018-03-25T04:17:16.289Z,26.02
2018-03-25T04:19:44.554Z,27.10
2018-03-25T04:22:13.566Z,26.02
2018-03-25T04:24:41.821Z,24.75
2018-03-25T04:27:10.843Z,24.25
2018-03-25T04:29:39.100Z,23.15
2018-03-25T04:32:07.362Z,26.10
2018-03-25T04:34:36.385Z,24.08
2018-03-25T04:37:04.637Z,26.42
2018-03-25T04:39:33.668Z,24.90
2018-03-25T04:42:01.926Z,26.83
2018-03-25T04:44:30.183Z,27.40
2018-03-25T04:46:59.206Z,28.33
2018-03-25T04:49:27.463Z,26.23
2018-03-25T04:51:55.721Z,27.02
2018-03-25T04:54:24.742Z,26.05
2018-03-25T04:56:53.061Z,26.40
2018-03-25T04:59:21.313Z,26.77
2018-03-25T05:01:49.567Z,29.00
2018-03-25T05:04:17.825Z,24.73
2018-03-25T05:06:46.081Z,25.02
2018-03-25T05:09:14.343Z,25.27
2018-03-25T05:11:42.590Z,27.30
2018-03-25T05:14:10.875Z,25.67
2018-03-25T05:16:39.129Z,24.20
2018-03-25T05:19:07.381Z,25.35
2018-03-25T05:21:36.404Z,24.27
2018-03-25T05:24:04.658Z,26.40
2018-03-25T05:26:32.927Z,24.25
2018-03-25T05:29:01.206Z,26.00
2018-03-25T05:31:29.465Z,24.83
2018-03-25T05:33:58.477Z,25.67
2018-03-25T05:36:26.739Z,23.02
2018-03-25T05:38:55.764Z,24.25
2018-03-25T05:41:24.019Z,26.80
2018-03-25T05:43:52.277Z,22.70
2018-03-25T05:46:21.302Z,23.50
2018-03-25T05:48:49.547Z,23.05
2018-03-25T05:51:18.569Z,24.05
2018-03-25T05:53:46.821Z,23.35
2018-03-25T05:56:15.851Z,23.67
2018-03-25T05:58:44.105Z,22.90
2018-03-25T06:01:12.363Z,23.60
2018-03-25T06:03:41.381Z,19.58
2018-03-25T06:06:09.645Z,21.30
2018-03-25T06:08:38.664Z,22.37
2018-03-25T06:11:06.910Z,20.48
2018-03-25T06:13:35.169Z,20.73
2018-03-25T06:16:04.185Z,22.87
2018-03-25T06:18:32.447Z,20.20
2018-03-25T06:21:01.462Z,21.45
2018-03-25T06:23:29.722Z,18.87
2018-03-25T06:25:57.973Z,17.80
2018-03-25T06:28:27.001Z,20.50
2018-03-25T06:30:55.261Z,20.23
2018-03-25T06:33:24.290Z,19.65
2018-03-25T06:35:52.548Z,19.58
2018-03-25T06:38:20.809Z,18.10
2018-03-25T06:40:49.830Z,18.17
2018-03-25T06:43:18.092Z,19.60
2018-03-25T06:45:46.347Z,20.88
2018-03-25T06:48:15.363Z,20.67
2018-03-25T06:50:43.613Z,17.98
2018-03-25T06:53:12.631Z,19.75
2018-03-25T06:55:40.877Z,17.62
2018-03-25T06:58:09.893Z,17.02
2018-03-25T07:00:38.150Z,19.10
2018-03-25T07:03:07.162Z,20.30
2018-03-25T07:05:35.419Z,19.90
2018-03-25T07:08:04.436Z,19.75
2018-03-25T07:10:32.690Z,19.17
2018-03-25T07:13:01.720Z,20.40
2018-03-25T07:15:29.957Z,21.65
2018-03-25T07:17:58.972Z,20.17
2018-03-25T07:20:27.224Z,19.98
2018-03-25T07:22:56.244Z,17.25
2018-03-25T07:25:24.498Z,19.33
2018-03-25T07:27:53.514Z,18.92
2018-03-25T07:30:21.764Z,21.35
2018-03-25T07:32:50.783Z,19.85
2018-03-25T07:35:19.039Z,17.95
2018-03-25T07:37:47.294Z,18.75
2018-03-25T07:40:16.313Z,19.10
2018-03-25T07:42:44.570Z,18.23
2018-03-25T07:45:13.602Z,19.30
2018-03-25T07:47:41.846Z,18.67
2018-03-25T07:50:10.916Z,17.35
2018-03-25T07:52:39.110Z,18.90
2018-03-25T07:55:08.134Z,19.50
2018-03-25T07:57:36.385Z,20.02
2018-03-25T08:00:05.402Z,22.85
2018-03-25T08:02:33.649Z,20.05
2018-03-25T08:05:02.670Z,20.65
2018-03-25T08:07:30.934Z,20.10
2018-03-25T08:09:59.186Z,21.37
2018-03-25T08:12:28.209Z,22.48
2018-03-25T08:14:56.458Z,22.00
2018-03-25T08:17:25.477Z,20.58
2018-03-25T08:19:53.746Z,22.50
2018-03-25T08:22:21.999Z,20.00
2018-03-25T08:24:51.026Z,23.20
2018-03-25T08:27:19.280Z,20.50
2018-03-25T08:29:48.291Z,20.93
2018-03-25T08:32:16.532Z,21.80
2018-03-25T08:34:45.546Z,21.60
2018-03-25T08:37:13.802Z,22.20
2018-03-25T08:39:42.050Z,22.53
2018-03-25T08:42:10.305Z,21.85
2018-03-25T08:44:38.550Z,22.10
2018-03-25T08:47:06.810Z,22.50
2018-03-25T08:49:35.818Z,23.77
2018-03-25T08:52:04.058Z,21.70
2018-03-25T08:54:32.313Z,21.83
2018-03-25T08:57:00.553Z,22.97
2018-03-25T08:59:28.810Z,21.87
2018-03-25T09:01:57.820Z,22.23
2018-03-25T09:04:26.069Z,22.67
2018-03-25T09:06:55.082Z,23.73
2018-03-25T09:09:23.332Z,21.87
2018-03-25T09:11:51.580Z,23.87
2018-03-25T09:14:19.821Z,24.37
2018-03-25T09:16:48.066Z,24.17
2018-03-25T09:19:17.089Z,24.97
2018-03-25T09:21:45.353Z,23.90
2018-03-25T09:24:14.358Z,22.47
2018-03-25T09:26:42.603Z,23.90
2018-03-25T09:29:11.623Z,24.10
2018-03-25T09:31:39.865Z,24.93
2018-03-25T09:34:08.880Z,24.70
2018-03-25T09:36:37.178Z,24.30
2018-03-25T09:39:05.462Z,22.60
2018-03-25T09:41:33.731Z,26.37
2018-03-25T09:44:01.979Z,23.60
2018-03-25T09:46:30.990Z,24.93
2018-03-25T09:48:59.231Z,24.30
2018-03-25T09:51:27.505Z,24.30
2018-03-25T09:53:56.521Z,25.70
2018-03-25T09:56:25.535Z,24.57
2018-03-25T09:58:53.774Z,23.80
2018-03-25T10:01:38.685Z,24.77
2018-03-25T10:04:06.924Z,23.40
2018-03-25T10:06:35.941Z,25.83
2018-03-25T10:09:04.194Z,26.33
2018-03-25T10:11:33.255Z,26.87
2018-03-25T10:14:01.451Z,25.97
2018-03-25T10:16:30.468Z,28.10
2018-03-25T10:18:58.724Z,25.53
2018-03-25T10:21:26.958Z,24.63
2018-03-25T10:23:55.210Z,26.00
2018-03-25T10:26:24.273Z,26.73
2018-03-25T10:28:53.283Z,27.77
2018-03-25T10:31:21.534Z,25.13
2018-03-25T10:33:50.547Z,24.10
2018-03-25T10:36:18.803Z,27.10
2018-03-25T10:38:47.821Z,27.27
2018-03-25T10:41:16.078Z,26.77
2018-03-25T10:43:45.098Z,26.10
2018-03-25T10:46:13.353Z,28.03
2018-03-25T10:48:42.364Z,26.10
2018-03-25T10:57:48.112Z,26.40
2018-03-25T11:00:16.401Z,24.87
2018-03-25T11:02:45.497Z,26.13
2018-03-25T11:05:14.567Z,24.00
2018-03-25T11:07:42.914Z,24.40
2018-03-25T11:10:11.190Z,25.77
2018-03-25T11:12:39.530Z,27.43
2018-03-25T11:15:08.017Z,27.10
2018-03-25T11:18:11.472Z,26.57
2018-03-25T11:20:54.311Z,26.70
2018-03-25T11:23:23.508Z,26.17
2018-03-25T11:25:51.822Z,29.20
2018-03-25T11:28:20.110Z,29.50
2018-03-25T11:30:48.348Z,27.10
2018-03-25T11:33:20.060Z,25.27
2018-03-25T11:36:02.456Z,26.83
2018-03-25T11:38:30.811Z,28.60
2018-03-25T11:40:59.127Z,27.97
2018-03-25T11:43:27.513Z,25.30
2018-03-25T11:45:56.921Z,28.03
2018-03-25T12:02:28.025Z,30.40
2018-03-25T12:04:56.287Z,27.27
2018-03-25T12:07:24.537Z,25.60
2018-03-25T12:09:53.567Z,26.20
2018-03-25T12:12:21.815Z,26.63
2018-03-25T12:14:50.850Z,25.27
2018-03-25T12:17:19.093Z,26.17
2018-03-25T12:19:47.338Z,26.87
2018-03-25T12:22:15.599Z,25.97
2018-03-25T12:24:43.842Z,25.33
2018-03-25T12:27:12.098Z,26.17
2018-03-25T12:29:40.348Z,25.77
2018-03-25T12:32:09.374Z,29.50
2018-03-25T12:34:37.631Z,27.53
2018-03-25T12:37:05.886Z,27.63
2018-03-25T12:39:34.900Z,27.90
2018-03-25T12:42:03.177Z,28.63
2018-03-25T12:44:31.426Z,26.20
2018-03-25T12:47:00.446Z,27.80
2018-03-25T12:49:28.698Z,25.70
2018-03-25T12:51:57.716Z,28.10
2018-03-25T12:54:25.970Z,25.80
2018-03-25T12:56:54.989Z,26.40
2018-03-25T12:59:23.237Z,25.77
2018-03-25T13:01:52.258Z,25.73
2018-03-25T13:04:20.510Z,24.53
2018-03-25T13:06:49.535Z,25.70
2018-03-25T13:09:17.787Z,23.50
2018-03-25T13:11:46.817Z,24.80
2018-03-25T13:14:15.062Z,25.33
2018-03-25T13:16:43.329Z,25.50
2018-03-25T13:19:12.348Z,27.47
2018-03-25T13:21:40.598Z,26.10
2018-03-25T13:24:09.615Z,24.70
2018-03-25T13:26:37.868Z,23.93
2018-03-25T13:29:06.122Z,23.23
2018-03-25T13:31:34.385Z,28.20
2018-03-25T13:34:02.638Z,24.73
2018-03-25T13:36:30.889Z,24.07
2018-03-25T13:38:59.150Z,24.53
2018-03-25T13:41:28.159Z,24.60
2018-03-25T13:43:56.412Z,25.03
2018-03-25T13:46:25.445Z,24.33
2018-03-25T13:48:53.698Z,26.07
2018-03-25T13:51:21.948Z,25.87
2018-03-25T13:53:50.985Z,25.40
2018-03-25T13:56:19.226Z,24.23
2018-03-25T13:58:48.250Z,24.33
2018-03-25T14:01:16.502Z,24.37
2018-03-25T14:03:44.758Z,24.27
2018-03-25T14:06:13.768Z,22.60
2018-03-25T14:08:42.025Z,25.40
2018-03-25T14:11:11.041Z,24.33
2018-03-25T14:13:39.301Z,25.53
2018-03-25T14:16:08.327Z,23.77
2018-03-25T14:18:36.585Z,24.10
2018-03-25T14:21:04.829Z,23.97
2018-03-25T14:23:33.098Z,27.20
2018-03-25T14:26:01.342Z,24.17
2018-03-25T14:28:29.589Z,24.67
2018-03-25T14:30:57.849Z,23.47
2018-03-25T14:33:26.867Z,22.50
2018-03-25T14:35:55.127Z,23.93
2018-03-25T14:38:24.140Z,22.70
2018-03-25T14:40:52.394Z,21.80
2018-03-25T14:43:20.645Z,24.03
2018-03-25T14:45:48.957Z,22.30
2018-03-25T14:48:17.196Z,23.13
2018-03-25T14:50:46.217Z,20.57
2018-03-25T14:53:14.467Z,20.23
2018-03-25T14:55:42.731Z,21.70
2018-03-25T14:58:10.973Z,23.13
2018-03-25T15:00:39.234Z,21.53
2018-03-25T15:03:07.489Z,21.00
2018-03-25T15:05:36.531Z,23.10
2018-03-25T15:08:04.775Z,22.40
2018-03-25T15:10:33.030Z,22.00
2018-03-25T15:13:02.051Z,21.87
2018-03-25T15:15:30.306Z,23.10
2018-03-25T15:17:58.572Z,20.43
2018-03-25T15:20:27.585Z,22.80
2018-03-25T15:22:55.846Z,21.97
2018-03-25T15:25:24.865Z,22.00
2018-03-25T15:27:53.126Z,22.30
2018-03-25T15:30:21.366Z,22.00
2018-03-25T15:32:49.623Z,20.90
2018-03-25T15:35:18.013Z,23.53
2018-03-25T15:37:47.216Z,22.90
2018-03-25T15:40:16.390Z,21.50
2018-03-25T15:42:45.002Z,21.80
2018-03-25T15:45:13.254Z,23.30
2018-03-25T15:47:41.506Z,20.67
2018-03-25T15:50:09.912Z,19.53
2018-03-25T15:52:38.285Z,20.13
2018-03-25T15:55:06.664Z,19.80
2018-03-25T15:57:35.753Z,22.70
2018-03-25T16:00:04.027Z,20.07
2018-03-25T16:02:32.286Z,20.50
2018-03-25T16:05:00.857Z,20.53
2018-03-25T16:07:29.214Z,19.87
2018-03-25T16:09:57.621Z,19.23
2018-03-25T16:12:26.029Z,19.70
2018-03-25T16:14:55.211Z,21.23
2018-03-25T16:17:23.573Z,19.73
2018-03-25T16:19:51.918Z,19.43
2018-03-25T16:22:21.060Z,22.20
2018-03-25T16:24:49.601Z,33.27
2018-03-25T16:27:18.107Z,20.87
2018-03-25T16:29:46.389Z,18.17
2018-03-25T16:32:14.650Z,20.23
2018-03-25T16:34:42.906Z,19.10
2018-03-25T16:37:11.919Z,19.90
2018-03-25T16:39:40.180Z,19.60
2018-03-25T16:42:09.282Z,19.07
2018-03-25T16:44:37.694Z,21.60
2018-03-25T16:47:06.136Z,20.97
2018-03-25T16:49:35.147Z,26.20
2018-03-25T16:52:03.454Z,20.80
2018-03-25T16:54:31.703Z,23.47
2018-03-25T16:56:59.999Z,21.93
2018-03-25T16:59:28.359Z,21.73
2018-03-25T17:01:56.618Z,21.93
2018-03-25T17:04:24.874Z,21.70
2018-03-25T17:06:53.170Z,21.73
2018-03-25T17:09:21.480Z,20.70
2018-03-25T17:11:49.734Z,20.87
2018-03-25T17:14:17.995Z,26.63
2018-03-25T17:16:46.278Z,24.13
2018-03-25T17:19:14.527Z,30.30
2018-03-25T17:21:43.553Z,28.87
2018-03-25T17:24:11.813Z,40.17
2018-03-25T17:26:40.836Z,28.13
2018-03-25T17:29:09.092Z,27.60
2018-03-25T17:31:37.352Z,27.53
2018-03-25T17:34:06.370Z,25.30
2018-03-25T17:36:34.639Z,26.13
2018-03-25T17:39:02.890Z,26.97
2018-03-25T17:41:31.914Z,21.67
2018-03-25T17:44:00.157Z,22.30
2018-03-25T17:46:29.174Z,24.50
2018-03-25T17:48:57.438Z,20.30
2018-03-25T17:51:26.447Z,19.00
2018-03-25T17:53:54.702Z,20.20
2018-03-25T17:56:23.725Z,20.37
2018-03-25T17:58:51.974Z,21.10
2018-03-25T18:01:20.981Z,20.93
2018-03-25T18:03:49.326Z,21.93
2018-03-25T18:06:17.561Z,20.23
2018-03-25T18:08:45.826Z,20.90
2018-03-25T18:11:14.065Z,21.80
2018-03-25T18:13:43.082Z,23.40
2018-03-25T18:16:11.345Z,20.40
2018-03-25T18:18:40.359Z,21.43
2018-03-25T18:21:08.598Z,21.10
2018-03-25T18:23:37.609Z,19.70
2018-03-25T18:26:05.885Z,20.97
2018-03-25T18:28:34.887Z,20.17
2018-03-25T18:31:03.165Z,20.40
2018-03-25T18:33:31.406Z,21.23
2018-03-25T18:36:00.420Z,21.63
2018-03-25T18:38:28.662Z,24.17
2018-03-25T18:40:56.919Z,26.60
2018-03-25T18:43:25.181Z,27.27
2018-03-25T18:45:53.429Z,26.27
2018-03-25T18:48:21.671Z,23.53
2018-03-25T18:50:49.921Z,23.90
2018-03-25T18:53:18.179Z,25.13
2018-03-25T18:55:46.427Z,23.00
2018-03-25T18:58:14.671Z,22.90
2018-03-25T19:00:42.959Z,22.87
2018-03-25T19:03:11.165Z,23.77
2018-03-25T19:05:39.417Z,22.07
2018-03-25T19:08:08.434Z,23.00
2018-03-25T19:10:36.686Z,23.03
2018-03-25T19:13:05.702Z,21.30
2018-03-25T19:15:33.957Z,18.80
2018-03-25T19:18:02.966Z,17.53
2018-03-25T19:20:31.219Z,24.07
2018-03-25T19:23:00.217Z,23.27
2018-03-25T19:25:28.476Z,22.90
2018-03-25T19:27:56.722Z,25.03
2018-03-25T19:30:24.979Z,22.60
2018-03-25T19:32:53.221Z,22.00
2018-03-25T19:35:21.472Z,21.10
2018-03-25T19:37:49.732Z,22.13
2018-03-25T19:40:17.972Z,21.33
2018-03-25T19:42:46.228Z,25.40
2018-03-25T19:45:14.478Z,23.73
2018-03-25T19:47:42.733Z,23.10
2018-03-25T19:50:10.974Z,24.07
2018-03-25T19:52:39.227Z,21.47
2018-03-25T19:55:08.240Z,20.97
2018-03-25T19:57:36.518Z,20.87
2018-03-25T20:00:05.489Z,20.40
2018-03-25T20:02:33.763Z,20.17
2018-03-25T20:05:02.029Z,18.83
2018-03-25T20:07:31.045Z,18.67
2018-03-25T20:09:59.290Z,18.50
2018-03-25T20:12:28.313Z,18.67
2018-03-25T20:14:56.554Z,17.33
2018-03-25T20:17:24.801Z,17.07
2018-03-25T20:19:53.051Z,22.53
2018-03-25T20:22:21.304Z,20.60
2018-03-25T20:24:50.311Z,17.93
2018-03-25T20:27:18.627Z,20.30
2018-03-25T20:29:46.883Z,20.23
2018-03-25T20:32:15.146Z,19.07
2018-03-25T20:34:43.438Z,18.53
2018-03-25T20:37:11.772Z,21.83
2018-03-25T20:39:40.778Z,18.43
2018-03-25T20:42:09.024Z,22.67
2018-03-25T20:44:37.269Z,20.70
2018-03-25T20:47:05.608Z,18.80
2018-03-25T20:49:34.154Z,20.70
2018-03-25T20:52:02.403Z,18.70
2018-03-25T20:54:30.657Z,19.57
2018-03-25T20:56:58.902Z,20.70
2018-03-25T20:59:27.928Z,20.63
2018-03-25T21:01:56.153Z,19.67
2018-03-25T21:04:25.357Z,20.10
2018-03-25T21:06:53.614Z,19.57
2018-03-25T21:09:21.878Z,19.63
2018-03-25T21:11:50.175Z,18.40
2018-03-25T21:14:18.380Z,19.70
2018-03-25T21:16:46.626Z,19.10
2018-03-25T21:19:14.882Z,17.57
2018-03-25T21:21:43.128Z,18.47
2018-03-25T21:24:11.379Z,16.50
2018-03-25T21:26:40.390Z,18.73
2018-03-25T21:29:08.649Z,16.77
2018-03-25T21:31:37.750Z,17.73
2018-03-25T21:34:06.024Z,18.13
2018-03-25T21:36:34.279Z,18.73
2018-03-25T21:39:03.298Z,16.30
2018-03-25T21:41:31.563Z,18.27
2018-03-25T21:43:59.805Z,16.70
2018-03-25T21:46:28.070Z,17.83
2018-03-25T21:48:56.310Z,17.87
2018-03-25T21:51:24.565Z,17.47
2018-03-25T21:53:52.811Z,18.30
2018-03-25T21:56:21.053Z,20.37
2018-03-25T21:58:49.494Z,20.10
2018-03-25T22:01:17.742Z,19.20
2018-03-25T22:03:46.758Z,20.60
2018-03-25T22:06:15.774Z,21.43
2018-03-25T22:08:44.009Z,18.10
2018-03-25T22:11:13.029Z,16.70
2018-03-25T22:13:42.039Z,17.73
2018-03-25T22:16:10.290Z,17.20
2018-03-25T22:19:00.070Z,16.83
2018-03-25T22:21:29.140Z,15.93
2018-03-25T22:23:57.402Z,17.27
2018-03-25T22:26:25.641Z,17.27
2018-03-25T22:28:53.893Z,15.50
2018-03-25T22:31:22.144Z,16.60
2018-03-25T22:33:50.390Z,18.90
2018-03-25T22:36:18.634Z,17.57
2018-03-25T22:38:46.893Z,17.70
2018-03-25T22:41:15.143Z,15.40
2018-03-25T22:43:43.390Z,16.27
2018-03-25T22:46:11.638Z,17.10
2018-03-25T22:48:39.881Z,17.13
2018-03-25T22:51:08.947Z,16.80
2018-03-25T22:53:37.170Z,16.60
2018-03-25T22:56:05.417Z,16.43
2018-03-25T22:58:33.660Z,16.97
2018-03-25T23:01:01.902Z,17.73
2018-03-25T23:03:30.150Z,19.57
2018-03-25T23:05:59.163Z,20.93
2018-03-25T23:08:27.409Z,20.03
2018-03-25T23:10:55.666Z,19.30
2018-03-25T23:13:23.913Z,19.87
2018-03-25T23:15:52.170Z,20.23
2018-03-25T23:18:20.409Z,19.77
2018-03-25T23:20:49.432Z,18.80
2018-03-25T23:23:17.672Z,20.73
2018-03-25T23:25:45.971Z,19.17
2018-03-25T23:28:14.194Z,19.30
2018-03-25T23:30:42.454Z,19.20
2018-03-25T23:33:10.706Z,19.33
2018-03-25T23:35:39.713Z,18.40
2018-03-25T23:38:07.955Z,18.47
2018-03-25T23:40:36.978Z,18.87
2018-03-25T23:43:05.214Z,17.73
2018-03-25T23:45:33.457Z,16.63
2018-03-25T23:48:01.814Z,16.40
2018-03-25T23:50:30.054Z,17.20
2018-03-25T23:52:59.075Z,17.10
2018-03-25T23:55:27.318Z,18.63
2018-03-25T23:57:56.344Z,17.57
